Time;durP1;ratioP1;P1;durP2;ratioP2;P2;SDS_P1;SDS_P2;PMS_P1;PMS_P2;Temp;Humidity;BMP_temperature;BMP_pressure;BME280_temperature;BME280_humidity;BME280_pressure;Samples;Min_cycle;Max_cycle;Signal;HPM_P1;HPM_P2
2022/08/10 00:00:28;;;;;;;14.65;13.25;;;;;;;20.90;100.00;100872.13;1766243;80;21253;-92
2022/08/10 00:02:58;;;;;;;14.75;13.28;;;;;;;20.81;100.00;100874.52;1752095;81;21564;-92
2022/08/10 00:05:27;;;;;;;13.90;12.58;;;;;;;20.70;100.00;100874.88;1752333;81;21094;-93
2022/08/10 00:07:57;;;;;;;14.73;13.13;;;;;;;20.62;100.00;100868.64;1752194;81;21031;-93
2022/08/10 00:10:24;;;;;;;14.20;12.90;;;;;;;20.60;100.00;100869.83;1752474;81;21019;-93
2022/08/10 00:12:54;;;;;;;15.55;14.15;;;;;;;20.61;100.00;100871.48;1752094;81;21096;-93
2022/08/10 00:15:25;;;;;;;15.17;13.87;;;;;;;20.63;100.00;100869.48;1752376;81;21011;-92
2022/08/10 00:17:55;;;;;;;14.47;13.28;;;;;;;20.65;100.00;100870.11;1752194;81;21197;-93
2022/08/10 00:20:22;;;;;;;15.93;14.30;;;;;;;20.64;100.00;100867.14;1752078;81;21513;-94
2022/08/10 00:22:49;;;;;;;14.95;13.45;;;;;;;20.60;100.00;100865.34;1752344;81;21032;-93
2022/08/10 00:25:19;;;;;;;14.83;13.50;;;;;;;20.57;100.00;100864.88;1761494;80;21130;-92
2022/08/10 00:27:46;;;;;;;15.48;14.03;;;;;;;20.53;100.00;100863.59;1758497;80;21021;-94
2022/08/10 00:30:13;;;;;;;15.15;13.75;;;;;;;20.51;100.00;100873.00;1752624;80;21048;-93
2022/08/10 00:32:41;;;;;;;15.28;13.80;;;;;;;20.54;100.00;100870.02;1751991;81;21038;-93
2022/08/10 00:35:08;;;;;;;16.50;14.90;;;;;;;20.56;100.00;100864.06;1752249;81;21026;-94
2022/08/10 00:37:39;;;;;;;16.48;14.60;;;;;;;20.58;100.00;100866.05;1752217;81;21261;-94
2022/08/10 00:40:08;;;;;;;15.23;13.70;;;;;;;20.58;100.00;100863.40;1752139;81;21111;-93
2022/08/10 00:42:37;;;;;;;14.98;13.58;;;;;;;20.53;100.00;100860.95;1751962;81;21505;-93
2022/08/10 00:45:08;;;;;;;15.25;13.75;;;;;;;20.46;100.00;100866.94;1752045;81;21100;-93
2022/08/10 00:47:37;;;;;;;14.95;13.55;;;;;;;20.37;100.00;100866.66;1752251;81;21496;-93
2022/08/10 00:50:07;;;;;;;14.70;13.28;;;;;;;20.30;100.00;100867.03;1752084;81;21122;-94
2022/08/10 00:52:36;;;;;;;15.00;13.43;;;;;;;20.21;100.00;100864.09;1752374;81;21078;-93
2022/08/10 00:55:05;;;;;;;14.03;12.82;;;;;;;20.13;100.00;100868.44;1752130;81;21100;-93
2022/08/10 00:57:34;;;;;;;14.43;13.05;;;;;;;20.07;100.00;100868.28;1752159;81;21649;-94
2022/08/10 01:00:05;;;;;;;13.38;12.28;;;;;;;20.00;100.00;100870.30;1752012;81;20978;-94
2022/08/10 01:02:36;;;;;;;12.73;11.48;;;;;;;19.95;100.00;100866.01;1752076;81;21252;-93
2022/08/10 01:05:07;;;;;;;13.00;11.90;;;;;;;19.90;100.00;100876.27;1751939;81;22255;-93
2022/08/10 01:08:01;;;;;;;15.25;13.32;;;;;;;19.84;100.00;100881.73;1752016;81;21034;-93
2022/08/10 01:10:43;;;;;;;14.68;13.28;;;;;;;19.75;100.00;100884.04;1752106;81;21085;-94
2022/08/10 01:13:27;;;;;;;14.58;13.08;;;;;;;19.63;100.00;100882.77;1750357;81;20979;-93
2022/08/10 01:16:12;;;;;;;15.58;14.18;;;;;;;19.56;100.00;100882.60;1771710;80;21114;-93
2022/08/10 01:19:09;;;;;;;15.88;14.45;;;;;;;19.50;100.00;100888.56;1747841;81;21513;-93
2022/08/10 01:22:15;;;;;;;16.65;14.75;;;;;;;19.47;100.00;100892.36;1764728;80;21042;-93
2022/08/10 01:24:56;;;;;;;16.25;14.87;;;;;;;19.38;100.00;100890.72;1782937;80;21006;-93
2022/08/10 01:27:29;;;;;;;;;;;;;;;19.27;100.00;100885.29;1773130;80;21086;-93
2022/08/10 01:30:09;;;;;;;17.17;14.85;;;;;;;19.22;100.00;100891.06;1763698;79;21140;-92
2022/08/10 01:33:12;;;;;;;18.07;15.60;;;;;;;19.22;100.00;100885.78;1774627;80;20982;-93
2022/08/10 01:35:52;;;;;;;16.50;14.90;;;;;;;19.22;100.00;100881.02;1808214;79;21057;-92
2022/08/10 01:38:28;;;;;;;17.73;16.15;;;;;;;19.19;100.00;100882.14;1808253;78;21504;-92
2022/08/10 01:41:05;;;;;;;19.37;17.20;;;;;;;19.14;100.00;100881.83;1757967;79;21051;-94
2022/08/10 01:43:37;;;;;;;20.40;18.30;;;;;;;19.08;100.00;100885.14;1757615;81;21159;-92
2022/08/10 01:46:10;;;;;;;20.90;19.02;;;;;;;19.00;100.00;100882.49;1757626;81;21105;-92
2022/08/10 01:48:48;;;;;;;20.97;18.87;;;;;;;18.94;100.00;100880.52;1758010;80;21026;-93
2022/08/10 01:51:31;;;;;;;21.70;19.35;;;;;;;18.87;100.00;100886.39;1752621;81;21037;-92
2022/08/10 01:54:09;;;;;;;21.57;18.95;;;;;;;18.84;100.00;100887.22;1755626;81;21057;-93
2022/08/10 01:56:46;;;;;;;23.20;20.68;;;;;;;18.80;100.00;100899.09;1757550;80;21914;-93
2022/08/10 01:59:32;;;;;;;24.45;19.35;;;;;;;18.82;100.00;100893.98;1750588;81;20998;-92
2022/08/10 02:02:07;;;;;;;22.30;20.00;;;;;;;18.83;100.00;100894.31;1776028;80;20999;-92
2022/08/10 02:04:39;;;;;;;23.55;21.12;;;;;;;18.78;100.00;100897.11;1771990;80;21038;-92
2022/08/10 02:07:14;;;;;;;25.92;22.00;;;;;;;18.80;100.00;100890.67;1780034;80;21080;-93
2022/08/10 02:09:51;;;;;;;22.82;20.35;;;;;;;18.82;100.00;100893.98;1804465;79;21155;-93
2022/08/10 02:12:23;;;;;;;23.70;21.30;;;;;;;18.81;100.00;100892.33;1775202;80;21046;-92
2022/08/10 02:14:59;;;;;;;22.42;20.00;;;;;;;18.83;100.00;100896.95;1749245;82;21049;-92
2022/08/10 02:17:34;;;;;;;23.22;21.02;;;;;;;18.85;100.00;100898.10;1748692;82;21026;-92
2022/08/10 02:20:06;;;;;;;23.00;20.85;;;;;;;18.89;100.00;100896.80;1776682;80;21014;-92
2022/08/10 02:22:37;;;;;;;23.07;20.62;;;;;;;18.93;100.00;100894.19;1770277;80;21313;-92
2022/08/10 02:25:08;;;;;;;23.17;20.80;;;;;;;18.98;100.00;100895.02;1776919;80;21002;-93
2022/08/10 02:27:43;;;;;;;;;;;;;;;19.02;100.00;100891.89;1776369;80;21043;-93
2022/08/10 02:30:12;;;;;;;23.52;21.02;;;;;;;19.04;100.00;100894.35;1744065;81;20514;-93
2022/08/10 02:32:42;;;;;;;23.73;21.23;;;;;;;19.01;100.00;100899.98;1770817;81;21003;-93
2022/08/10 02:35:13;;;;;;;23.45;21.15;;;;;;;18.94;100.00;100897.16;1738486;81;21145;-92
2022/08/10 02:37:46;;;;;;;24.90;22.50;;;;;;;18.85;100.00;100906.02;1770928;81;20987;-93
2022/08/10 02:40:15;;;;;;;25.35;22.62;;;;;;;18.75;100.00;100899.58;1767231;81;21034;-92
2022/08/10 02:42:49;;;;;;;24.60;22.10;;;;;;;18.67;100.00;100897.73;1770853;81;21050;-92
2022/08/10 02:45:34;;;;;;;24.12;21.82;;;;;;;18.61;100.00;100894.44;1737242;82;21066;-93
2022/08/10 02:48:28;;;;;;;25.15;22.50;;;;;;;18.59;100.00;100899.03;1764389;81;21233;-93
2022/08/10 02:51:03;;;;;;;23.12;20.90;;;;;;;18.58;100.00;100899.55;1764741;81;21064;-92
2022/08/10 02:53:45;;;;;;;20.70;18.70;;;;;;;18.57;100.00;100902.35;1765763;81;21005;-93
2022/08/10 02:56:33;;;;;;;22.17;20.12;;;;;;;18.54;100.00;100903.98;1769700;80;21028;-93
2022/08/10 02:59:27;;;;;;;21.48;19.40;;;;;;;18.53;100.00;100899.21;1771680;81;21032;-93
2022/08/10 03:02:01;;;;;;;21.55;19.48;;;;;;;18.52;100.00;100897.56;1779074;80;21891;-93
2022/08/10 03:04:48;;;;;;;21.87;19.73;;;;;;;18.55;100.00;100906.45;1749838;81;21563;-93
2022/08/10 03:07:20;;;;;;;22.75;20.45;;;;;;;18.57;100.00;100903.67;1746651;82;21009;-93
2022/08/10 03:09:51;;;;;;;21.87;19.57;;;;;;;18.58;100.00;100907.45;1762198;81;21593;-93
2022/08/10 03:12:21;;;;;;;21.12;18.92;;;;;;;18.68;100.00;100909.94;1746739;82;21100;-93
2022/08/10 03:14:49;;;;;;;21.73;19.67;;;;;;;18.68;100.00;100909.94;1762207;81;21143;-93
2022/08/10 03:17:20;;;;;;;21.73;19.62;;;;;;;18.71;100.00;100912.27;1746626;82;20998;-93
2022/08/10 03:19:51;;;;;;;22.02;19.92;;;;;;;18.72;100.00;100909.97;1747907;81;21095;-94
2022/08/10 03:22:20;;;;;;;23.32;20.57;;;;;;;18.75;100.00;100905.67;1729663;82;21015;-93
2022/08/10 03:24:48;;;;;;;23.45;21.17;;;;;;;18.78;100.00;100904.55;1751421;81;21069;-93
2022/08/10 03:27:17;;;;;;;22.15;19.98;;;;;;;18.82;100.00;100904.53;1742876;79;21163;-94
2022/08/10 03:29:49;;;;;;;22.70;20.50;;;;;;;18.85;100.00;100902.91;1767878;81;20993;-93
2022/08/10 03:32:21;;;;;;;23.92;21.52;;;;;;;18.91;100.00;100906.67;1716748;83;21566;-93
2022/08/10 03:34:49;;;;;;;24.63;22.07;;;;;;;18.94;100.00;100903.75;1768314;79;20986;-93
2022/08/10 03:37:16;;;;;;;23.80;21.40;;;;;;;19.00;100.00;100912.84;1737393;82;21003;-93
2022/08/10 04:00:11;;;;;;;25.27;22.87;;;;;;;19.39;100.00;100909.54;1820960;77;22341;-93
2022/08/10 04:02:40;;;;;;;24.52;21.82;;;;;;;19.41;100.00;100913.32;1790042;78;21472;-91
2022/08/10 04:05:08;;;;;;;26.45;22.95;;;;;;;19.48;100.00;100915.14;1774369;80;21069;-93
2022/08/10 04:07:36;;;;;;;28.30;25.50;;;;;;;19.54;100.00;100914.98;1785418;79;21002;-93
2022/08/10 04:10:06;;;;;;;26.55;23.80;;;;;;;19.59;100.00;100911.84;1769060;80;21468;-92
2022/08/10 04:12:33;;;;;;;26.52;23.90;;;;;;;19.60;100.00;100916.95;1779774;79;21569;-92
2022/08/10 04:15:00;;;;;;;26.65;24.27;;;;;;;19.58;100.00;100910.19;1760053;79;21409;-92
2022/08/10 04:17:27;;;;;;;29.05;25.92;;;;;;;19.56;100.00;100910.33;1784767;79;21121;-92
2022/08/10 04:19:57;;;;;;;28.87;23.98;;;;;;;19.54;100.00;100907.87;1766701;80;22674;-92
2022/08/10 04:22:26;;;;;;;26.00;22.98;;;;;;;19.56;100.00;100912.97;1771279;79;21397;-93
2022/08/10 04:24:58;;;;;;;26.95;24.37;;;;;;;19.60;100.00;100912.14;1770508;79;20999;-92
2022/08/10 04:27:26;;;;;;;27.05;24.27;;;;;;;19.62;100.00;100910.16;1771811;80;21014;-93
2022/08/10 04:29:55;;;;;;;25.77;23.00;;;;;;;19.65;100.00;100923.86;1768131;80;21841;-93
2022/08/10 04:32:26;;;;;;;26.00;23.27;;;;;;;19.70;100.00;100929.48;1776668;79;21543;-93
2022/08/10 04:34:56;;;;;;;26.50;24.02;;;;;;;19.80;100.00;100921.36;1774038;80;21519;-93
2022/08/10 04:37:25;;;;;;;27.60;24.73;;;;;;;19.90;100.00;100923.03;1779828;80;21034;-92
2022/08/10 04:39:52;;;;;;;25.75;22.98;;;;;;;19.99;100.00;100907.48;1776653;79;21523;-92
2022/08/10 04:42:20;;;;;;;29.70;24.05;;;;;;;20.10;100.00;100918.17;1777770;79;21079;-93
2022/08/10 04:44:47;;;;;;;29.35;26.00;;;;;;;20.21;100.00;100905.89;1780311;79;21014;-93
2022/08/10 04:47:14;;;;;;;28.52;25.62;;;;;;;20.28;100.00;100902.06;1774191;80;21045;-92
2022/08/10 04:49:41;;;;;;;30.97;27.80;;;;;;;20.34;100.00;100905.34;1772460;79;21022;-92
2022/08/10 04:52:08;;;;;;;28.10;25.30;;;;;;;20.43;100.00;100894.23;1781792;79;21806;-91
2022/08/10 04:54:36;;;;;;;28.02;25.23;;;;;;;20.52;100.00;100904.27;1780905;79;21141;-93
2022/08/10 04:57:04;;;;;;;29.45;26.45;;;;;;;20.57;100.00;100895.29;1779154;79;21101;-93
2022/08/10 04:59:31;;;;;;;29.25;26.35;;;;;;;20.61;100.00;100905.87;1773219;80;21049;-91
2022/08/10 05:01:58;;;;;;;32.55;26.52;;;;;;;20.68;100.00;100909.94;1765620;79;21188;-91
2022/08/10 05:04:29;;;;;;;29.63;26.60;;;;;;;20.70;100.00;100908.79;1759789;79;21085;-92
2022/08/10 05:06:56;;;;;;;29.95;26.90;;;;;;;20.70;100.00;100904.82;1759177;79;21877;-92
2022/08/10 05:09:24;;;;;;;32.58;29.27;;;;;;;20.70;100.00;100898.20;1764689;79;20995;-92
2022/08/10 05:11:51;;;;;;;30.00;27.07;;;;;;;20.71;100.00;100899.83;1760368;80;21492;-94
2022/08/10 05:14:18;;;;;;;30.05;27.35;;;;;;;20.71;100.00;100902.47;1757779;80;21370;-93
2022/08/10 05:16:46;;;;;;;31.80;28.62;;;;;;;20.73;100.00;100899.70;1756973;79;21043;-94
2022/08/10 05:19:13;;;;;;;29.85;26.80;;;;;;;20.75;100.00;100895.88;1757659;79;21834;-94
2022/08/10 05:21:40;;;;;;;29.52;26.65;;;;;;;20.82;100.00;100899.14;1763918;80;21027;-94
2022/08/10 05:24:07;;;;;;;29.95;27.10;;;;;;;20.89;100.00;100900.08;1751382;79;21050;-93
2022/08/10 05:26:34;;;;;;;26.77;24.43;;;;;;;21.00;100.00;100894.37;1763879;81;21063;-93
2022/08/10 05:29:01;;;;;;;26.40;23.90;;;;;;;21.15;100.00;100904.19;1767090;79;21031;-93
2022/08/10 05:31:29;;;;;;;29.42;26.73;;;;;;;21.32;100.00;100903.05;1748161;79;21273;-93
2022/08/10 05:33:56;;;;;;;32.67;26.97;;;;;;;21.49;100.00;100905.55;1764691;81;21492;-93
2022/08/10 05:36:24;;;;;;;26.35;23.95;;;;;;;21.61;100.00;100905.44;1769163;79;21009;-93
2022/08/10 05:38:52;;;;;;;27.85;25.17;;;;;;;21.72;100.00;100911.63;1742348;80;21059;-93
2022/08/10 05:41:20;;;;;;;27.70;24.92;;;;;;;21.84;100.00;100901.40;1753187;79;21042;-93
2022/08/10 05:43:47;;;;;;;27.85;25.12;;;;;;;21.97;100.00;100892.80;1763076;79;21108;-92
2022/08/10 05:46:15;;;;;;;29.10;26.50;;;;;;;22.14;100.00;100889.95;1766771;79;21034;-93
2022/08/10 05:48:42;;;;;;;28.62;25.62;;;;;;;22.29;100.00;100892.08;1756034;79;21075;-92
2022/08/10 05:51:10;;;;;;;26.12;23.60;;;;;;;22.44;100.00;100891.24;1764760;79;21072;-93
2022/08/10 05:53:37;;;;;;;26.87;23.98;;;;;;;22.57;100.00;100883.41;1761952;79;21002;-93
2022/08/10 05:56:07;;;;;;;28.70;26.02;;;;;;;22.65;100.00;100879.31;1762037;80;21118;-94
2022/08/10 05:58:35;;;;;;;26.73;24.35;;;;;;;22.75;100.00;100886.15;1760173;79;21038;-93
2022/08/10 06:01:07;;;;;;;28.27;25.90;;;;;;;22.84;100.00;100881.03;1800933;78;21109;-94
2022/08/10 06:03:39;;;;;;;26.95;24.55;;;;;;;22.90;100.00;100883.44;1803710;78;21302;-93
2022/08/10 06:06:09;;;;;;;27.32;24.87;;;;;;;22.97;100.00;100879.81;1799888;78;21045;-94
2022/08/10 06:08:40;;;;;;;25.85;23.55;;;;;;;23.05;100.00;100882.02;1804857;79;21248;-95
2022/08/10 06:11:10;;;;;;;25.08;22.55;;;;;;;23.11;100.00;100874.63;1803981;78;21102;-88
2022/08/10 06:16:26;;;;;;;26.68;24.10;;;;;;;23.26;100.00;100870.08;1800343;78;21065;-88
2022/08/10 06:18:55;;;;;;;25.70;23.15;;;;;;;23.38;100.00;100866.38;1802678;78;21480;-87
2022/08/10 06:21:23;;;;;;;25.17;22.87;;;;;;;23.47;100.00;100870.50;1801418;78;21112;-87
2022/08/10 06:23:52;;;;;;;26.82;23.75;;;;;;;23.51;100.00;100876.28;1790687;79;21527;-87
2022/08/10 06:26:20;;;;;;;26.35;23.50;;;;;;;23.54;100.00;100875.06;1806512;78;21028;-89
2022/08/10 06:28:55;;;;;;;26.35;23.95;;;;;;;23.62;100.00;100870.92;1805135;78;21540;-88
2022/08/10 06:31:24;;;;;;;26.55;24.15;;;;;;;23.71;100.00;100867.58;1789676;78;21033;-88
2022/08/10 06:33:53;;;;;;;31.85;23.22;;;;;;;23.83;100.00;100869.17;1788878;79;21116;-87
2022/08/10 06:36:22;;;;;;;24.77;22.13;;;;;;;23.94;100.00;100866.80;1789759;79;21069;-86
2022/08/10 06:38:51;;;;;;;23.92;21.55;;;;;;;24.06;100.00;100869.72;1787593;77;21040;-87
2022/08/10 06:41:25;;;;;;;22.77;20.68;;;;;;;24.13;100.00;100864.44;1791283;78;20995;-91
2022/08/10 06:44:06;;;;;;;22.98;20.72;;;;;;;24.17;100.00;100860.34;1787481;79;21077;-88
2022/08/10 06:46:36;;;;;;;;;;;;;;;24.22;100.00;100857.08;1736883;81;21206;-88
2022/08/10 06:49:06;;;;;;;22.10;20.08;;;;;;;24.31;100.00;100852.42;1744125;81;20220;-91
2022/08/10 06:51:36;;;;;;;24.80;20.92;;;;;;;24.40;100.00;100848.52;1748050;81;21050;-90
2022/08/10 06:54:10;;;;;;;23.10;21.07;;;;;;;24.50;100.00;100848.96;1778699;79;21128;-92
2022/08/10 06:56:44;;;;;;;22.02;20.02;;;;;;;24.58;100.00;100844.78;1782182;79;21000;-89
2022/08/10 06:59:19;;;;;;;22.42;20.37;;;;;;;24.67;100.00;100848.61;1750891;80;21865;-88
2022/08/10 07:01:51;;;;;;;23.22;21.20;;;;;;;24.73;100.00;100846.45;1762268;80;21504;-90
2022/08/10 07:04:37;;;;;;;23.35;20.72;;;;;;;24.77;100.00;100863.68;1763386;80;21018;-89
2022/08/10 07:07:07;;;;;;;20.72;18.82;;;;;;;24.80;100.00;100865.11;1765923;80;21027;-90
2022/08/10 07:09:38;;;;;;;21.68;19.67;;;;;;;24.86;100.00;100854.97;1766215;79;21031;-90
2022/08/10 07:12:08;;;;;;;23.22;20.88;;;;;;;24.97;100.00;100853.53;1783677;80;21113;-91
2022/08/10 07:14:43;;;;;;;24.40;21.97;;;;;;;25.06;100.00;100858.16;1772834;79;20990;-91
2022/08/10 07:17:16;;;;;;;24.00;21.65;;;;;;;25.14;100.00;100861.94;1768187;80;21026;-91
2022/08/10 07:19:47;;;;;;;24.23;22.07;;;;;;;25.24;100.00;100855.66;1755804;80;21064;-90
2022/08/10 07:22:17;;;;;;;24.35;22.05;;;;;;;25.39;100.00;100852.80;1766936;80;21409;-90
2022/08/10 07:24:46;;;;;;;24.32;22.22;;;;;;;25.56;100.00;100849.69;1767286;80;21951;-90
2022/08/10 07:27:16;;;;;;;25.27;22.67;;;;;;;25.72;100.00;100845.23;1776032;80;21054;-91
2022/08/10 07:29:44;;;;;;;21.95;20.02;;;;;;;25.85;100.00;100839.53;1777314;80;21014;-90
2022/08/10 07:32:13;;;;;;;25.85;23.25;;;;;;;25.96;100.00;100836.22;1777007;80;21499;-90
2022/08/10 07:34:44;;;;;;;24.92;22.42;;;;;;;26.09;100.00;100837.50;1777183;80;21081;-90
2022/08/10 07:37:13;;;;;;;24.80;22.27;;;;;;;26.23;100.00;100833.45;1777360;80;21815;-91
2022/08/10 07:39:46;;;;;;;24.95;22.25;;;;;;;26.37;100.00;100831.48;1763577;80;20997;-90
2022/08/10 07:42:15;;;;;;;23.87;21.30;;;;;;;26.49;100.00;100827.61;1759515;81;21004;-90
2022/08/10 07:44:45;;;;;;;21.40;19.42;;;;;;;26.57;100.00;100826.02;1769703;79;21116;-90
2022/08/10 07:47:29;;;;;;;22.02;19.95;;;;;;;26.61;100.00;100828.56;1768030;80;21741;-90
2022/08/10 07:50:02;;;;;;;23.42;21.42;;;;;;;26.67;100.00;100834.37;1773188;80;21099;-90
2022/08/10 07:52:33;;;;;;;23.98;21.52;;;;;;;26.75;100.00;100827.42;1772304;80;21030;-90
2022/08/10 07:55:03;;;;;;;23.52;21.52;;;;;;;26.87;100.00;100824.08;1774322;80;21575;-90
2022/08/10 07:57:33;;;;;;;21.62;19.50;;;;;;;27.00;100.00;100829.30;1777240;80;21081;-91
2022/08/10 08:00:09;;;;;;;22.70;20.43;;;;;;;27.16;100.00;100831.10;1774780;80;21053;-91
2022/08/10 08:02:50;;;;;;;22.75;20.57;;;;;;;27.29;100.00;100832.30;1770286;80;21143;-91
2022/08/10 08:05:22;;;;;;;21.30;19.25;;;;;;;27.49;100.00;100839.33;1767710;81;21034;-91
2022/08/10 08:07:54;;;;;;;20.52;18.75;;;;;;;27.67;100.00;100837.99;1769441;80;21082;-91
2022/08/10 08:10:26;;;;;;;21.48;19.30;;;;;;;27.82;100.00;100834.11;1774661;80;20998;-91
2022/08/10 08:13:00;;;;;;;19.85;18.10;;;;;;;27.91;100.00;100838.11;1761389;80;21014;-91
2022/08/10 08:15:28;;;;;;;19.00;17.30;;;;;;;27.99;100.00;100829.77;1738214;80;21399;-90
2022/08/10 08:17:58;;;;;;;21.82;18.30;;;;;;;28.08;100.00;100828.15;1773801;80;21489;-91
2022/08/10 08:20:26;;;;;;;21.15;19.40;;;;;;;28.18;100.00;100825.22;1769358;81;21946;-91
2022/08/10 08:22:56;;;;;;;22.85;19.37;;;;;;;28.30;100.00;100817.22;1755036;79;21055;-91
2022/08/10 08:25:23;;;;;;;21.55;19.40;;;;;;;28.43;100.00;100816.70;1758004;80;21073;-91
2022/08/10 08:27:52;;;;;;;22.58;20.17;;;;;;;28.53;100.00;100816.14;1768228;81;21558;-91
2022/08/10 08:30:20;;;;;;;21.25;19.35;;;;;;;28.56;100.00;100818.36;1767881;81;20991;-90
2022/08/10 08:33:11;;;;;;;21.07;19.37;;;;;;;28.54;100.00;100813.75;1760119;81;21066;-90
2022/08/10 08:35:38;;;;;;;21.15;19.35;;;;;;;28.52;100.00;100809.98;1768386;81;21099;-90
2022/08/10 08:38:06;;;;;;;21.93;20.02;;;;;;;28.46;100.00;100806.89;1767972;81;21004;-90
2022/08/10 08:40:36;;;;;;;20.32;18.37;;;;;;;28.44;100.00;100801.73;1757915;80;21466;-90
2022/08/10 08:43:46;;;;;;;22.27;20.08;;;;;;;28.51;100.00;100799.50;1764748;81;21516;-91
2022/08/10 08:46:40;;;;;;;20.08;18.17;;;;;;;28.61;100.00;100793.86;1764776;80;21011;-89
2022/08/10 08:49:28;;;;;;;20.90;18.90;;;;;;;28.74;100.00;100792.02;1760682;81;21078;-91
2022/08/10 08:52:26;;;;;;;23.20;19.60;;;;;;;28.83;100.00;100786.61;1769259;79;21033;-92
2022/08/10 08:55:29;;;;;;;19.77;18.07;;;;;;;28.97;100.00;100785.86;1767481;81;21144;-90
2022/08/10 08:58:36;;;;;;;21.00;18.87;;;;;;;29.05;100.00;100779.31;1767675;80;21088;-90
2022/08/10 09:01:54;;;;;;;20.37;18.70;;;;;;;29.05;100.00;100774.78;1768101;80;20997;-91
2022/08/10 09:04:38;;;;;;;20.95;18.95;;;;;;;29.02;100.00;100771.22;1750005;80;22033;-90
2022/08/10 09:07:41;;;;;;;19.00;17.45;;;;;;;29.02;100.00;100771.76;1776037;80;20994;-90
2022/08/10 09:10:28;;;;;;;21.42;19.48;;;;;;;29.01;100.00;100770.13;1773083;80;21122;-91
2022/08/10 09:13:28;;;;;;;21.62;19.52;;;;;;;28.98;100.00;100766.05;1776683;80;21042;-91
2022/08/10 09:16:21;;;;;;;20.77;18.75;;;;;;;28.96;100.00;100766.80;1770836;80;20956;-90
2022/08/10 09:19:06;;;;;;;19.45;17.80;;;;;;;28.90;100.00;100763.19;1770960;80;21014;-90
2022/08/10 09:21:54;;;;;;;20.82;18.73;;;;;;;28.86;100.00;100764.73;1775469;80;21029;-89
2022/08/10 09:24:46;;;;;;;20.75;18.95;;;;;;;28.96;100.00;100758.77;1773791;80;21145;-90
2022/08/10 09:27:23;;;;;;;20.75;18.75;;;;;;;29.13;100.00;100758.84;1772292;80;21030;-93
2022/08/10 09:29:57;;;;;;;20.70;18.65;;;;;;;29.31;100.00;100762.43;1773673;80;21060;-91
2022/08/10 09:32:57;;;;;;;20.43;18.27;;;;;;;29.44;100.00;100758.19;1771644;80;21006;-92
2022/08/10 09:35:32;;;;;;;20.48;18.30;;;;;;;29.58;100.00;100752.83;1775285;80;21058;-91
2022/08/10 09:38:17;;;;;;;19.37;17.70;;;;;;;29.75;100.00;100755.55;1758836;80;21340;-90
2022/08/10 09:41:23;;;;;;;20.17;18.32;;;;;;;29.82;100.00;100758.59;1766166;79;20994;-90
2022/08/10 09:44:18;;;;;;;19.05;17.45;;;;;;;29.84;100.00;100751.12;1774832;79;21088;-90
2022/08/10 09:47:15;;;;;;;18.15;16.65;;;;;;;29.80;100.00;100752.14;1755777;80;20969;-90
2022/08/10 09:50:00;;;;;;;21.65;19.20;;;;;;;29.73;100.00;100749.59;1753122;80;21518;-90
2022/08/10 09:53:06;;;;;;;19.92;17.98;;;;;;;29.68;100.00;100749.52;1751325;80;21987;-90
2022/08/10 09:56:03;;;;;;;18.87;17.27;;;;;;;29.67;100.00;100747.08;1758261;80;21090;-91
2022/08/10 09:59:11;;;;;;;18.57;16.75;;;;;;;29.67;100.00;100750.56;1752572;80;21071;-89
2022/08/10 10:01:52;;;;;;;19.73;17.85;;;;;;;29.70;100.00;100752.78;1784695;79;21076;-90
2022/08/10 10:04:46;;;;;;;20.08;18.25;;;;;;;29.77;100.00;100745.10;1773105;80;20990;-90
2022/08/10 10:07:18;;;;;;;19.67;17.75;;;;;;;29.78;100.00;100744.85;1771778;80;21119;-91
2022/08/10 10:10:03;;;;;;;18.32;16.50;;;;;;;29.77;100.00;100748.58;1760248;80;21431;-91
2022/08/10 10:12:56;;;;;;;18.70;16.82;;;;;;;29.71;100.00;100734.80;1763601;79;21035;-90
2022/08/10 10:15:34;;;;;;;18.80;17.00;;;;;;;29.68;100.00;100740.12;1751429;81;21081;-90
2022/08/10 10:18:13;;;;;;;18.77;17.07;;;;;;;29.71;100.00;100738.82;1763448;79;21558;-92
2022/08/10 10:21:06;;;;;;;19.20;17.25;;;;;;;29.75;100.00;100741.33;1765955;80;21077;-90
2022/08/10 10:23:57;;;;;;;17.95;15.93;;;;;;;29.82;100.00;100735.28;1752728;80;21030;-91
2022/08/10 10:26:56;;;;;;;18.42;16.93;;;;;;;29.93;100.00;100735.47;1759996;81;21448;-90
2022/08/10 10:29:59;;;;;;;17.57;15.98;;;;;;;30.01;100.00;100735.07;1750771;80;21022;-90
2022/08/10 10:32:37;;;;;;;17.40;15.93;;;;;;;30.11;100.00;100735.25;1788156;79;21046;-90
2022/08/10 10:35:25;;;;;;;16.97;15.38;;;;;;;30.27;100.00;100732.81;1781803;79;21141;-89
2022/08/10 10:37:55;;;;;;;19.00;16.17;;;;;;;30.44;100.00;100740.34;1760371;80;21022;-90
2022/08/10 10:40:26;;;;;;;17.30;15.68;;;;;;;30.58;98.58;100741.36;1772837;80;21096;-90
2022/08/10 10:43:43;;;;;;;16.42;14.73;;;;;;;30.68;90.88;100738.83;1779215;80;21051;-91
2022/08/10 10:46:30;;;;;;;16.87;15.38;;;;;;;30.83;87.09;100740.38;1777555;80;21095;-91
2022/08/10 10:49:19;;;;;;;16.37;15.00;;;;;;;31.09;91.08;100734.03;1765063;80;21144;-90
2022/08/10 10:52:00;;;;;;;16.95;15.45;;;;;;;31.23;82.72;100725.57;1770242;80;21060;-90
2022/08/10 10:54:33;;;;;;;16.65;15.00;;;;;;;31.36;81.19;100729.23;1709608;80;21014;-90
2022/08/10 10:57:14;;;;;;;15.98;14.58;;;;;;;31.45;75.33;100727.70;1761314;80;21607;-90
2022/08/10 10:59:56;;;;;;;17.75;15.98;;;;;;;31.46;74.09;100728.53;1774579;80;21088;-90
2022/08/10 11:02:46;;;;;;;18.52;16.90;;;;;;;31.42;73.40;100725.53;1769153;80;21833;-89
2022/08/10 11:05:33;;;;;;;17.82;16.35;;;;;;;31.35;71.71;100732.98;1771730;80;21018;-90
2022/08/10 11:08:30;;;;;;;17.52;15.90;;;;;;;31.34;77.20;100725.15;1806441;79;21588;-92
2022/08/10 11:11:05;;;;;;;16.87;15.32;;;;;;;31.41;83.29;100726.59;1783397;80;21545;-91
2022/08/10 11:14:01;;;;;;;18.05;16.48;;;;;;;31.59;77.32;100724.63;1778021;79;21085;-89
2022/08/10 11:16:51;;;;;;;18.65;16.80;;;;;;;31.73;78.81;100720.48;1783193;79;21172;-90
2022/08/10 11:19:36;;;;;;;17.55;16.05;;;;;;;31.77;72.38;100721.59;1778617;80;21026;-90
2022/08/10 11:22:21;;;;;;;16.40;14.90;;;;;;;31.74;69.02;100708.66;1770196;79;21093;-90
2022/08/10 11:25:18;;;;;;;17.52;15.68;;;;;;;31.73;66.37;100709.72;1758403;80;21606;-90
2022/08/10 11:28:17;;;;;;;16.90;15.40;;;;;;;31.80;66.53;100706.00;1799760;79;21564;-90
2022/08/10 11:30:56;;;;;;;16.65;14.95;;;;;;;31.93;59.45;100706.91;1788281;79;21850;-90
2022/08/10 11:33:43;;;;;;;18.30;15.93;;;;;;;32.09;59.42;100705.97;1782149;79;21105;-89
2022/08/10 11:36:43;;;;;;;17.10;15.50;;;;;;;32.30;62.33;100706.68;1785635;78;21667;-90
2022/08/10 11:39:18;;;;;;;16.82;15.32;;;;;;;32.46;60.73;100698.17;1790691;78;21029;-89
2022/08/10 11:41:54;;;;;;;17.02;15.40;;;;;;;32.62;57.71;100694.50;1800678;79;21088;-89
2022/08/10 11:44:35;;;;;;;17.98;16.23;;;;;;;32.66;59.98;100693.44;1791689;78;21545;-90
2022/08/10 11:47:07;;;;;;;17.42;15.25;;;;;;;32.50;57.86;100687.14;1795518;79;21516;-91
2022/08/10 11:49:43;;;;;;;19.07;16.55;;;;;;;32.35;62.12;100685.98;1791262;79;21051;-91
2022/08/10 11:52:40;;;;;;;17.05;15.60;;;;;;;32.23;62.14;100684.03;1758482;79;21008;-91
2022/08/10 11:55:21;;;;;;;18.10;16.50;;;;;;;32.12;62.68;100680.95;1788534;78;21065;-90
2022/08/10 11:57:57;;;;;;;19.17;16.70;;;;;;;32.04;61.68;100684.40;1763410;80;21781;-89
2022/08/10 12:00:25;;;;;;;18.70;16.87;;;;;;;31.88;62.83;100676.75;1800591;79;21589;-90
2022/08/10 12:03:02;;;;;;;19.87;17.02;;;;;;;31.74;64.44;100672.84;1800173;79;21083;-90
2022/08/10 12:05:36;;;;;;;19.12;17.02;;;;;;;31.64;69.29;100668.16;1781951;79;21081;-91
2022/08/10 12:08:05;;;;;;;19.17;17.12;;;;;;;31.58;67.93;100663.80;1776829;79;21484;-89